Map

Track Data

SID SEASON NUMBER BASIN SUBBASIN NAME ISO_TIME NATURE LAT LON WMO_WIND WMO_PRES WMO_AGENCY TRACK_TYPE DIST2LAND LANDFALL IFLAG USA_AGENCY USA_ATCF_ID USA_LAT USA_LON USA_RECORD USA_STATUS USA_WIND USA_PRES USA_SSHS USA_R34_NE USA_R34_SE USA_R34_SW USA_R34_NW USA_R50_NE USA_R50_SE USA_R50_SW USA_R50_NW USA_R64_NE USA_R64_SE USA_R64_SW USA_R64_NW USA_POCI USA_ROCI USA_RMW USA_EYE TOKYO_LAT TOKYO_LON TOKYO_GRADE TOKYO_WIND TOKYO_PRES TOKYO_R50_DIR TOKYO_R50_LONG TOKYO_R50_SHORT TOKYO_R30_DIR TOKYO_R30_LONG TOKYO_R30_SHORT TOKYO_LAND CMA_LAT CMA_LON CMA_CAT CMA_WIND CMA_PRES HKO_LAT HKO_LON HKO_CAT HKO_WIND HKO_PRES NEWDELHI_LAT NEWDELHI_LON NEWDELHI_GRADE NEWDELHI_WIND NEWDELHI_PRES NEWDELHI_CI NEWDELHI_DP NEWDELHI_POCI REUNION_LAT REUNION_LON REUNION_TYPE REUNION_WIND REUNION_PRES REUNION_TNUM REUNION_CI REUNION_RMW REUNION_R34_NE REUNION_R34_SE REUNION_R34_SW REUNION_R34_NW REUNION_R50_NE REUNION_R50_SE REUNION_R50_SW REUNION_R50_NW REUNION_R64_NE REUNION_R64_SE REUNION_R64_SW REUNION_R64_NW BOM_LAT BOM_LON BOM_TYPE BOM_WIND BOM_PRES BOM_TNUM BOM_CI BOM_RMW BOM_R34_NE BOM_R34_SE BOM_R34_SW BOM_R34_NW BOM_R50_NE BOM_R50_SE BOM_R50_SW BOM_R50_NW BOM_R64_NE BOM_R64_SE BOM_R64_SW BOM_R64_NW BOM_ROCI BOM_POCI BOM_EYE BOM_POS_METHOD BOM_PRES_METHOD NADI_LAT NADI_LON NADI_CAT NADI_WIND NADI_PRES WELLINGTON_LAT WELLINGTON_LON WELLINGTON_WIND WELLINGTON_PRES DS824_LAT DS824_LON DS824_STAGE DS824_WIND DS824_PRES TD9636_LAT TD9636_LON TD9636_STAGE TD9636_WIND TD9636_PRES TD9635_LAT TD9635_LON TD9635_WIND TD9635_PRES TD9635_ROCI NEUMANN_LAT NEUMANN_LON NEUMANN_CLASS NEUMANN_WIND NEUMANN_PRES MLC_LAT MLC_LON MLC_CLASS MLC_WIND MLC_PRES USA_GUST BOM_GUST BOM_GUST_PER REUNION_GUST REUNION_GUST_PER USA_SEAHGT USA_SEARAD_NE USA_SEARAD_SE USA_SEARAD_SW USA_SEARAD_NW STORM_SPEED STORM_DIR
1982194N10224 1982 46 EP MM EMILIA 1982-07-12 12:00:00 TS 10.0000 -136.500 30 hurdat_epa main 2234 2172 O_____________ hurdat_epa EP051982 10.0000 -136.500 TD 30 -1 13 275
1982194N10224 1982 46 EP MM EMILIA 1982-07-12 15:00:00 TS 10.0553 -137.152 main 2163 2107 P_____________ EP051982 10.0553 -137.152 TD 32 -1 13 274
1982194N10224 1982 46 EP MM EMILIA 1982-07-12 18:00:00 TS 10.1000 -137.800 35 hurdat_epa main 2107 2051 O_____________ hurdat_epa EP051982 10.1000 -137.800 TS 35 0 13 274
1982194N10224 1982 46 EP MM EMILIA 1982-07-12 21:00:00 TS 10.1348 -138.443 main 2051 1981 P_____________ EP051982 10.1348 -138.443 TS 35 0 13 274
1982194N10224 1982 46 EP MM EMILIA 1982-07-13 00:00:00 TS 10.2000 -139.100 35 hurdat_epa main 1981 1911 O_____________ hurdat_epa EP051982 10.2000 -139.100 TS 35 0 13 278
1982194N10224 1982 46 EP MM EMILIA 1982-07-13 03:00:00 TS 10.3199 -139.793 main 1911 1835 P_____________ EP051982 10.3199 -139.793 TS 35 0 14 282
1982194N10224 1982 46 EP CP EMILIA 1982-07-13 06:00:00 TS 10.5000 -140.500 35 hurdat_epa main 1835 1760 O_________O___ hurdat_epa EP051982 10.5000 -140.500 TS 35 0 10.5000 -140.500 2 35 15 287
1982194N10224 1982 46 EP CP EMILIA 1982-07-13 09:00:00 TS 10.7498 -141.221 main 1760 1687 P_________P___ EP051982 10.7426 -141.237 TS 37 0 10.7522 -141.220 2 37 14 290
1982194N10224 1982 46 EP CP EMILIA 1982-07-13 12:00:00 TS 11.0000 -141.865 40 hurdat_epa main 1678 1629 O_________O___ hurdat_epa EP051982 11.0000 -141.900 TS 40 0 11.0000 -141.900 2 40 12 292
1982194N10224 1982 46 EP CP EMILIA 1982-07-13 15:00:00 TS 11.2079 -142.365 main 1621 1572 P_________P___ EP051982 11.1996 -142.358 TS 42 0 11.2410 -142.509 2 42 11 293
1982194N10224 1982 46 EP CP EMILIA 1982-07-13 18:00:00 TS 11.4146 -142.852 45 hurdat_epa main 1564 1507 O_________P___ hurdat_epa EP051982 11.4000 -142.800 TS 45 0 11.4730 -143.062 2 45 12 293
1982194N10224 1982 46 EP CP EMILIA 1982-07-13 21:00:00 TS 11.6588 -143.462 main 1491 1426 P_________P___ EP051982 11.6501 -143.427 TS 47 0 11.6936 -143.584 2 47 13 292
1982194N10224 1982 46 EP CP EMILIA 1982-07-14 00:00:00 TS 11.9000 -144.100 50 hurdat_epa main 1426 1361 O_________O___ hurdat_epa EP051982 11.9000 -144.100 TS 50 0 11.9000 -144.100 2 50 13 290
1982194N10224 1982 46 EP CP EMILIA 1982-07-14 03:00:00 TS 12.1089 -144.708 main 1361 1296 P_________P___ EP051982 12.1149 -144.723 TS 52 0 12.0851 -144.663 2 51 12 289
1982194N10224 1982 46 EP CP EMILIA 1982-07-14 06:00:00 TS 12.2915 -145.285 55 hurdat_epa main 1296 1247 O_________P___ hurdat_epa EP051982 12.3000 -145.300 TS 55 0 12.2573 -145.223 2 52 11 287
1982194N10224 1982 46 EP CP EMILIA 1982-07-14 09:00:00 TS 12.4329 -145.806 main 1247 1191 P_________P___ EP051982 12.4346 -145.785 TS 55 0 12.4258 -145.772 2 53 11 287
1982194N10224 1982 46 EP CP EMILIA 1982-07-14 12:00:00 TS 12.6000 -146.340 55 hurdat_epa main 1191 1112 O_________O___ hurdat_epa EP051982 12.6000 -146.300 TS 55 0 12.6000 -146.300 2 55 13 291
1982194N10224 1982 46 EP CP EMILIA 1982-07-14 15:00:00 TS 12.8855 -147.000 main 1112 1050 P_________P___ EP051982 12.9080 -147.037 TS 55 0 12.7962 -146.781 2 53 14 294
1982194N10224 1982 46 EP CP EMILIA 1982-07-14 18:00:00 TS 13.1598 -147.609 55 hurdat_epa main 1042 1003 O_________P___ hurdat_epa EP051982 13.2000 -147.700 TS 55 0 12.9990 -147.243 2 52 10 293
1982194N10224 1982 46 EP CP EMILIA 1982-07-14 21:00:00 TS 13.2921 -147.968 main 1003 972 P_________P___ EP051982 13.3143 -147.950 TS 52 0 13.2024 -147.709 2 51 7 289
1982194N10224 1982 46 EP CP EMILIA 1982-07-15 00:00:00 TS 13.4000 -148.320 50 hurdat_epa main 972 910 O_________O___ hurdat_epa EP051982 13.4000 -148.200 TS 50 0 13.4000 -148.200 2 50 10 288
1982194N10224 1982 46 EP CP EMILIA 1982-07-15 03:00:00 TS 13.5918 -148.920 main 910 849 P_________P___ EP051982 13.5930 -148.870 TS 42 0 13.5876 -148.775 2 45 13 288
1982194N10224 1982 46 EP CP EMILIA 1982-07-15 06:00:00 TS 13.7935 -149.555 35 hurdat_epa main 842 805 O_________P___ hurdat_epa EP051982 13.8000 -149.600 TS 35 0 13.7674 -149.374 2 40 12 288
1982194N10224 1982 46 EP CP EMILIA 1982-07-15 09:00:00 TS 13.9535 -150.053 main 790 753 P_________P___ EP051982 13.9572 -150.088 TS 32 -1 13.9384 -149.960 2 35 10 288
1982194N10224 1982 46 EP CP EMILIA 1982-07-15 12:00:00 TS 14.1000 -150.500 30 hurdat_epa main 753 718 O_________O___ hurdat_epa EP051982 14.1000 -150.500 TD 30 -1 14.1000 -150.500 1 30 9 289
1982194N10224 1982 46 EP CP EMILIA 1982-07-15 15:00:00 TS 14.2487 -150.947 main 718 668 P_________P___ EP051982 14.2478 -150.937 TD 27 -1 14.2526 -150.970 1 27 9 289
1982194N10224 1982 46 EP CP EMILIA 1982-07-15 18:00:00 TS 14.4000 -151.400 25 hurdat_epa main 668 O_________O___ hurdat_epa EP051982 14.4000 -151.400 TD 25 -1 14.4000 -151.400 1 25 9 289

About IBTrACS Database

This database is a web-friendly format of International Best Track Archive for Climate Stewardship (IBTrACS), a global best track data archive curated by NOAA dating back to 1842.

Updated: 2021-11-26